Mc Clure, Pennsylvania
Current Conditions -  °F | °C
As of 6:53 PM on Wednesday 22 Oct 2014 (Local Time) from KUNV Reporting Station
Overcast Overcast  
Wind Chill: 43°   Ceiling: 2100
Heat Index: 48°   Visibility: 10mi
Dew Point: 41°   Wind: 14mph
Humidity: 76%   Direction: 10°N
Pressure: 30.07"   Gusts: NA
Location:  40.7125°N, 77.3707°W
Report Text: KUNV 222253Z 01012KT 10SM OVC021 09/05 A3007
Loading
Personal Weather Stations






























Interactive Weather Map
Tropical Storm Tracking
New forecast layout! Learn more

10-Day Weather Forecast

Advertisements
Track Severe Weather on mobile